Portada
METAR-TAF:

METAR-TAF

Aeroports :

San Fernando, Argentina

latitud: 34-27-11S, longitud: 058-35-23W, altitud: 3 m

Observació

L'informe es va fer fa 42 minuts, a les 23:00 UTC
Vent 8 kt del Nord-Oest
Temperatura 16°C
Humitat 51%
Pressió 1007 hPa
Visibilitat 10 km o més
sense núvols per sota de 1500 mi sense presència de cumulonimbus.

METAR: SADF 172300Z 32008KT CAVOK 16/06 Q1007

Hora: 20:42 (23:42 UTC)

Pronòstic

L'informe es va fer fa 42 minuts, a les 23:00 UTC
Pronòstic vàlid del 18 a les 00 UTC al 18 a les 24 UTC
Vent 10 kt del Nord-Oest
Visibilitat 10 km o més
sense núvols per sota de 1500 mi sense presència de cumulonimbus.
Evolucionant progressivament
l' 18 a les 03 UTC al 18 a les 05 UTC
Vent 5 kt del Sud/Sud-Oest
Evolucionant progressivament
l' 18 a les 16 UTC al 18 a les 18 UTC
Vent 5 kt del Nord/Nord-Est

TAF: SADF 172300Z 1800/1824 31010KT CAVOK TX20/1818Z TN09/1810Z BECMG 1803/1805 20005KT BECMG 1816/1818 03005KT

Observacions i pronòstics meteorològics de més de 4000 aeroports (METAR i TAF).

Les estacions disponibles són els punts grocs i vermells al mapa.

Posi el ratolí al punt desitjat per veure el nom de l'estació.

Feu clic per veure les observacions i els pronòstics meteorològics.

Per canviar el mapa: feu clic els botons verds amb una creu de color negre per apropar; al botó verd amb un guió per allunyar la imatge; o en les fletxes verdes per a mapes adjacents.


METAR-TAF: